createdAt,value
2022-11-22T00:00:44.225Z,99006.00
2022-11-22T00:03:11.957Z,99018.94
2022-11-22T00:05:39.421Z,99011.19
2022-11-22T00:08:06.923Z,99018.94
2022-11-22T00:10:34.934Z,99012.00
2022-11-22T00:13:02.504Z,99005.09
2022-11-22T00:15:30.473Z,99004.28
2022-11-22T00:17:58.040Z,99007.72
2022-11-22T00:20:25.402Z,99006.00
2022-11-22T00:22:52.829Z,99011.19
2022-11-22T00:25:20.433Z,99018.03
2022-11-22T00:27:47.774Z,99010.31
2022-11-22T00:30:15.576Z,99009.47
2022-11-22T00:32:43.195Z,99011.19
2022-11-22T00:35:11.514Z,98994.81
2022-11-22T00:37:38.889Z,98999.09
2022-11-22T00:40:07.098Z,98996.50
2022-11-22T00:42:34.381Z,98981.03
2022-11-22T00:45:01.725Z,98981.88
2022-11-22T00:47:29.270Z,98989.63
2022-11-22T00:49:56.550Z,98992.22
2022-11-22T00:52:23.821Z,98987.03
2022-11-22T00:54:54.754Z,98996.50
2022-11-22T00:57:22.998Z,98997.41
2022-11-22T00:59:50.704Z,98999.12
2022-11-22T01:02:18.011Z,98998.25
2022-11-22T01:04:46.032Z,98995.69
2022-11-22T01:07:13.666Z,98997.38
2022-11-22T01:09:41.019Z,98998.25
2022-11-22T01:12:08.678Z,99001.72
2022-11-22T01:14:36.240Z,98999.97
2022-11-22T01:17:03.560Z,98996.53
2022-11-22T01:19:31.292Z,98989.66
2022-11-22T01:21:58.980Z,98987.03
2022-11-22T01:24:26.391Z,98980.16
2022-11-22T01:26:53.921Z,98981.88
2022-11-22T01:29:21.534Z,98978.44
2022-11-22T01:31:48.831Z,98974.97
2022-11-22T01:34:16.117Z,98975.00
2022-11-22T01:36:43.665Z,98977.56
2022-11-22T01:39:11.014Z,98972.41
2022-11-22T01:41:38.389Z,98980.16
2022-11-22T01:44:22.196Z,98981.88
2022-11-22T01:46:51.926Z,98983.59
2022-11-22T01:50:05.979Z,98976.69
2022-11-22T01:52:33.742Z,98976.69
2022-11-22T01:55:07.635Z,98969.81
2022-11-22T01:57:37.670Z,98973.25
2022-11-22T02:00:08.785Z,98980.16
2022-11-22T02:02:41.432Z,98966.34
2022-11-22T02:05:13.478Z,98969.81
2022-11-22T02:07:45.307Z,98968.94
2022-11-22T02:10:13.483Z,98972.41
2022-11-22T02:12:42.014Z,98968.09
2022-11-22T02:15:10.185Z,98968.06
2022-11-22T02:17:37.819Z,98964.63
2022-11-22T02:20:07.063Z,98959.47
2022-11-22T02:22:45.070Z,98950.00
2022-11-22T02:25:30.555Z,98953.44
2022-11-22T02:27:58.066Z,98953.41
2022-11-22T02:30:25.659Z,98949.97
2022-11-22T02:32:52.982Z,98952.56
2022-11-22T02:35:23.089Z,98950.00
2022-11-22T02:37:55.269Z,98946.53
2022-11-22T02:40:23.023Z,98948.25
2022-11-22T02:42:54.303Z,98942.22
2022-11-22T02:45:21.651Z,98935.34
2022-11-22T02:47:48.990Z,98943.97
2022-11-22T02:50:16.621Z,98947.38
2022-11-22T02:52:44.007Z,98950.84
2022-11-22T02:55:11.303Z,98941.34
2022-11-22T02:57:38.862Z,98947.41
2022-11-22T03:00:06.967Z,98942.22
2022-11-22T03:02:34.294Z,98938.75
2022-11-22T03:05:01.867Z,98942.22
2022-11-22T03:07:29.326Z,98935.31
2022-11-22T03:09:56.878Z,98935.31
2022-11-22T03:12:24.503Z,98937.91
2022-11-22T03:14:51.914Z,98927.56
2022-11-22T03:17:19.193Z,98933.59
2022-11-22T03:19:46.827Z,98929.28
2022-11-22T03:22:14.214Z,98937.03
2022-11-22T03:24:41.607Z,98932.72
2022-11-22T03:27:09.203Z,98928.41
2022-11-22T03:29:36.510Z,98935.31
2022-11-22T03:32:03.910Z,98940.47
2022-11-22T03:34:31.599Z,98930.97
2022-11-22T03:36:58.929Z,98939.59
2022-11-22T03:39:26.308Z,98939.63
2022-11-22T03:41:56.294Z,98930.97
2022-11-22T03:44:23.836Z,98929.25
2022-11-22T03:46:51.143Z,98923.22
2022-11-22T03:49:18.759Z,98917.16
2022-11-22T03:51:46.065Z,98911.13
2022-11-22T03:54:13.421Z,98905.94
2022-11-22T03:56:40.987Z,98915.41
2022-11-22T03:59:08.309Z,98916.31
2022-11-22T04:01:35.643Z,98914.56
2022-11-22T04:04:03.264Z,98910.25
2022-11-22T04:06:30.603Z,98919.72
2022-11-22T04:08:58.019Z,98918.03
2022-11-22T04:11:25.747Z,98918.91
2022-11-22T04:14:11.493Z,98918.00
2022-11-22T04:16:39.200Z,98914.56
2022-11-22T04:19:06.556Z,98907.69
2022-11-22T04:21:34.227Z,98906.81
2022-11-22T04:24:22.587Z,98911.97
2022-11-22T04:26:50.191Z,98910.28
2022-11-22T04:29:18.518Z,98911.19
2022-11-22T04:32:05.128Z,98912.88
2022-11-22T04:34:33.109Z,98913.75
2022-11-22T04:37:01.149Z,98925.78
2022-11-22T04:39:28.589Z,98896.50
2022-11-22T04:42:15.384Z,98911.16
2022-11-22T04:44:43.704Z,98908.59
2022-11-22T04:47:13.317Z,98899.97
2022-11-22T04:49:40.642Z,98891.34
2022-11-22T04:52:27.726Z,98902.56
2022-11-22T04:54:55.339Z,98897.41
2022-11-22T04:57:22.657Z,98902.56
2022-11-22T04:59:50.183Z,98912.06
2022-11-22T05:02:17.769Z,98918.94
2022-11-22T05:04:50.459Z,98931.88
2022-11-22T05:07:18.451Z,98915.50
2022-11-22T05:09:45.802Z,98914.62
2022-11-22T05:12:13.163Z,98926.72
2022-11-22T05:14:40.779Z,98930.16
2022-11-22T05:17:11.631Z,98894.81
2022-11-22T05:19:43.582Z,98918.06
2022-11-22T05:22:13.814Z,98924.06
2022-11-22T05:24:41.431Z,98932.63
2022-11-22T05:27:09.095Z,98917.19
2022-11-22T05:29:36.372Z,98932.66
2022-11-22T05:32:04.156Z,98921.41
2022-11-22T05:34:31.485Z,98935.09
2022-11-22T05:36:59.195Z,98926.59
2022-11-22T05:39:26.976Z,98936.09
2022-11-22T05:41:57.251Z,98905.13
2022-11-22T05:44:24.546Z,98893.84
2022-11-22T05:46:52.097Z,98905.03
2022-11-22T05:49:19.634Z,98911.03
2022-11-22T05:51:46.928Z,98927.44
2022-11-22T05:54:14.646Z,98930.06
2022-11-22T05:56:42.051Z,98936.94
2022-11-22T05:59:09.378Z,98948.97
2022-11-22T06:01:36.945Z,98942.94
2022-11-22T06:04:04.587Z,98947.25
2022-11-22T06:06:32.029Z,98938.62
2022-11-22T06:08:59.799Z,98940.34
2022-11-22T06:11:28.082Z,98939.47
2022-11-22T06:14:00.027Z,98941.16
2022-11-22T06:16:27.598Z,98942.94
2022-11-22T06:18:55.372Z,98944.66
2022-11-22T06:21:24.701Z,98951.50
2022-11-22T06:23:53.846Z,98952.41
2022-11-22T06:26:22.807Z,98943.81
2022-11-22T06:28:50.627Z,98946.38
2022-11-22T06:31:21.078Z,98933.50
2022-11-22T06:33:48.562Z,98933.44
2022-11-22T06:36:18.222Z,98926.59
2022-11-22T06:38:46.577Z,98931.75
2022-11-22T06:41:16.245Z,98935.16
2022-11-22T06:43:48.752Z,98946.28
2022-11-22T06:46:18.748Z,98941.03
2022-11-22T06:48:46.365Z,98944.59
2022-11-22T06:51:18.947Z,98942.91
2022-11-22T06:53:48.818Z,98949.78
2022-11-22T06:56:23.694Z,98959.22
2022-11-22T06:58:52.126Z,98945.53
2022-11-22T07:01:21.746Z,98937.81
2022-11-22T07:03:49.638Z,98936.97
2022-11-22T07:06:18.702Z,98943.88
2022-11-22T07:08:47.584Z,98949.87
2022-11-22T07:11:20.343Z,98932.69
2022-11-22T07:13:48.563Z,98941.25
2022-11-22T07:16:18.540Z,98942.94
2022-11-22T07:18:46.418Z,98941.16
2022-11-22T07:21:16.548Z,98929.13
2022-11-22T07:23:45.945Z,98930.84
2022-11-22T07:26:14.533Z,98936.91
2022-11-22T07:28:42.441Z,98942.03
2022-11-22T07:31:11.623Z,98947.31
2022-11-22T07:33:39.487Z,98951.66
2022-11-22T07:36:11.283Z,98949.09
2022-11-22T07:38:38.946Z,98952.50
2022-11-22T07:41:07.361Z,98945.62
2022-11-22T07:43:35.152Z,98941.34
2022-11-22T07:46:05.579Z,98940.47
2022-11-22T07:48:33.162Z,98943.94
2022-11-22T07:51:05.743Z,98945.66
2022-11-22T07:53:34.047Z,98947.34
2022-11-22T07:56:05.631Z,98943.94
2022-11-22T07:58:34.179Z,98937.91
2022-11-22T08:01:06.805Z,98939.63
2022-11-22T08:03:34.883Z,98936.19
2022-11-22T08:06:03.810Z,98936.19
2022-11-22T08:08:31.213Z,98937.06
2022-11-22T08:10:58.863Z,98927.56
2022-11-22T08:13:26.746Z,98935.31
2022-11-22T08:15:54.860Z,98925.84
2022-11-22T08:18:23.124Z,98937.03
2022-11-22T08:20:50.485Z,98925.00
2022-11-22T08:23:18.139Z,98926.72
2022-11-22T08:25:45.772Z,98938.75
2022-11-22T08:28:13.196Z,98931.84
2022-11-22T08:30:40.499Z,98922.41
2022-11-22T08:33:08.103Z,98932.75
2022-11-22T08:35:35.471Z,98932.72
2022-11-22T08:38:02.766Z,98932.69
2022-11-22T08:40:30.319Z,98931.00
2022-11-22T08:42:57.840Z,98943.88
2022-11-22T08:45:25.417Z,98934.47
2022-11-22T08:47:53.066Z,98930.16
2022-11-22T08:50:20.406Z,98928.41
2022-11-22T08:52:47.736Z,98932.75
2022-11-22T08:55:15.491Z,98931.88
2022-11-22T08:57:42.781Z,98923.22
2022-11-22T09:00:11.373Z,98933.53
2022-11-22T09:02:39.067Z,98935.22
2022-11-22T09:05:06.461Z,98921.41
2022-11-22T09:10:21.381Z,98920.63
2022-11-22T09:12:48.781Z,98930.12
2022-11-22T09:15:16.553Z,98916.38
2022-11-22T09:17:44.326Z,98918.91
2022-11-22T09:20:12.010Z,98912.06
2022-11-22T09:22:39.705Z,98913.78
2022-11-22T09:25:07.968Z,98917.22
2022-11-22T09:27:35.894Z,98911.22
2022-11-22T09:30:04.113Z,98899.16
2022-11-22T09:32:33.841Z,98902.59
2022-11-22T09:35:01.361Z,98898.28
2022-11-22T09:37:28.751Z,98895.69
2022-11-22T09:39:56.330Z,98892.25
2022-11-22T09:43:01.518Z,98891.38
2022-11-22T09:46:08.182Z,98879.28
2022-11-22T09:48:53.746Z,98877.53
2022-11-22T09:51:24.116Z,98874.13
2022-11-22T09:54:00.089Z,98872.34
2022-11-22T09:56:28.623Z,98878.34
2022-11-22T09:58:59.428Z,98870.59
2022-11-22T10:01:51.532Z,98862.78
2022-11-22T10:04:28.981Z,98857.53
2022-11-22T10:07:02.214Z,98860.16
2022-11-22T10:10:14.993Z,98859.19
2022-11-22T10:12:53.084Z,98849.66
2022-11-22T10:15:44.147Z,98848.97
2022-11-22T10:18:21.207Z,98848.94
2022-11-22T10:20:49.489Z,98840.16
2022-11-22T10:23:19.202Z,98844.56
2022-11-22T10:26:23.212Z,98843.66
2022-11-22T10:29:31.619Z,98835.75
2022-11-22T10:32:13.517Z,98835.00
2022-11-22T10:34:59.869Z,98834.19
2022-11-22T10:37:39.562Z,98826.44
2022-11-22T10:40:25.654Z,98815.19
2022-11-22T10:43:05.150Z,98810.97
2022-11-22T10:45:35.348Z,98802.34
2022-11-22T10:48:13.745Z,98805.78
2022-11-22T10:51:00.058Z,98802.31
2022-11-22T10:53:48.362Z,98792.81
2022-11-22T10:56:53.813Z,98781.47
2022-11-22T10:59:47.303Z,98792.81
2022-11-22T11:02:32.016Z,98781.59
2022-11-22T11:05:01.013Z,98767.81
2022-11-22T11:07:28.654Z,98765.22
2022-11-22T11:10:18.017Z,98752.19
2022-11-22T11:12:57.260Z,98753.66
2022-11-22T11:15:44.037Z,98747.72
2022-11-22T11:18:16.429Z,98751.97
2022-11-22T11:20:44.010Z,98753.56
2022-11-22T11:23:15.867Z,98746.53
2022-11-22T11:25:48.367Z,98744.78
2022-11-22T11:28:27.585Z,98736.97
2022-11-22T11:31:01.063Z,98737.06
2022-11-22T11:33:30.802Z,98729.97
2022-11-22T11:36:14.301Z,98726.44
2022-11-22T11:38:44.804Z,98725.69
2022-11-22T11:41:20.997Z,98721.25
2022-11-22T11:43:49.671Z,98716.97
2022-11-22T11:46:27.040Z,98713.47
2022-11-22T11:48:56.313Z,98716.94
2022-11-22T11:51:39.098Z,98707.72
2022-11-22T11:54:19.503Z,98698.72
2022-11-22T11:56:57.902Z,98684.88
2022-11-22T11:59:37.696Z,98686.00
2022-11-22T12:02:11.112Z,98689.50
2022-11-22T12:05:00.494Z,98681.63
2022-11-22T12:07:39.244Z,98671.16
2022-11-22T12:10:30.502Z,98671.31
2022-11-22T12:13:04.585Z,98668.53
2022-11-22T12:15:44.083Z,98670.56
2022-11-22T12:18:30.875Z,98656.53
2022-11-22T12:21:25.202Z,98649.84
2022-11-22T12:24:42.804Z,98646.97
2022-11-22T12:26:58.371Z,98642.66
2022-11-22T12:29:26.001Z,98647.91
2022-11-22T12:32:11.865Z,98640.88
2022-11-22T12:34:45.443Z,98637.37
2022-11-22T12:37:17.807Z,98637.47
2022-11-22T12:39:48.168Z,98633.84
2022-11-22T12:42:30.351Z,98628.03
2022-11-22T12:45:28.669Z,98625.56
2022-11-22T12:47:58.006Z,98620.22
2022-11-22T12:50:49.558Z,98621.22
2022-11-22T12:53:24.081Z,98622.41
2022-11-22T12:56:09.488Z,98620.69
2022-11-22T12:58:58.147Z,98624.22
2022-11-22T13:01:29.032Z,98614.81
2022-11-22T13:04:01.711Z,98605.22
2022-11-22T13:06:34.866Z,98612.97
2022-11-22T13:09:07.284Z,98615.59
2022-11-22T13:11:39.411Z,98618.31
2022-11-22T13:14:17.761Z,98615.56
2022-11-22T13:16:50.390Z,98621.53
2022-11-22T13:19:20.290Z,98612.06
2022-11-22T13:22:00.162Z,98607.81
2022-11-22T13:24:35.377Z,98615.59
2022-11-22T13:27:19.167Z,98614.19
2022-11-22T13:29:47.511Z,98616.78
2022-11-22T13:32:20.755Z,98612.41
2022-11-22T13:35:12.539Z,98612.22
2022-11-22T13:37:49.006Z,98613.09
2022-11-22T13:40:16.534Z,98619.25
2022-11-22T13:42:44.125Z,98616.66
2022-11-22T13:45:21.686Z,98615.06
2022-11-22T13:47:49.537Z,98610.81
2022-11-22T13:50:41.847Z,98608.97
2022-11-22T13:53:31.413Z,98608.97
2022-11-22T13:56:21.349Z,98606.41
2022-11-22T13:58:51.759Z,98597.13
2022-11-22T14:01:34.907Z,98602.41
2022-11-22T14:04:21.076Z,98597.94
2022-11-22T14:07:01.648Z,98595.34
2022-11-22T14:09:51.153Z,98597.84
2022-11-22T14:12:50.774Z,98597.91
2022-11-22T14:15:41.394Z,98604.94
2022-11-22T14:18:24.666Z,98599.66
2022-11-22T14:21:05.798Z,98599.63
2022-11-22T14:23:43.394Z,98597.72
2022-11-22T14:26:20.066Z,98603.25
2022-11-22T14:29:12.913Z,98611.78
2022-11-22T14:31:40.735Z,98604.25
2022-11-22T14:34:26.165Z,98606.84
2022-11-22T14:37:12.508Z,98605.91
2022-11-22T14:39:47.315Z,98613.50
2022-11-22T14:42:41.046Z,98610.88
2022-11-22T14:45:09.982Z,98598.22
2022-11-22T14:47:47.866Z,98597.22
2022-11-22T14:50:37.329Z,98609.38
2022-11-22T14:53:29.538Z,98605.00
2022-11-22T14:56:21.690Z,98599.81
2022-11-22T14:58:58.313Z,98600.53
2022-11-22T15:01:54.753Z,98604.84
2022-11-22T15:09:11.062Z,98603.19
2022-11-22T15:09:19.463Z,98588.53
2022-11-22T15:10:43.674Z,98588.66
2022-11-22T15:13:29.770Z,98595.72
2022-11-22T15:59:42.078Z,98598.41
2022-11-22T16:02:16.058Z,98592.28
2022-11-22T16:04:49.267Z,98593.97
2022-11-22T16:07:46.793Z,98587.09
2022-11-22T16:10:27.224Z,98592.22
2022-11-22T16:12:54.596Z,98588.75
2022-11-22T16:15:38.523Z,98587.94
2022-11-22T16:18:08.579Z,98583.50
2022-11-22T16:20:37.750Z,98584.31
2022-11-22T16:23:13.590Z,98587.03
2022-11-22T16:25:44.030Z,98580.91
2022-11-22T16:28:28.715Z,98575.06
2022-11-22T16:30:58.432Z,98574.25
2022-11-22T16:33:25.793Z,98566.38
2022-11-22T16:35:55.015Z,98581.03
2022-11-22T16:38:23.562Z,98572.34
2022-11-22T16:40:51.099Z,98578.34
2022-11-22T16:43:23.358Z,98578.34
2022-11-22T16:45:50.850Z,98575.91
2022-11-22T16:48:31.663Z,98566.34
2022-11-22T16:51:12.955Z,98575.87
2022-11-22T16:53:45.203Z,98569.09
2022-11-22T16:56:19.679Z,98576.69
2022-11-22T16:58:48.098Z,98572.44
2022-11-22T17:01:18.918Z,98575.94
2022-11-22T17:03:47.465Z,98560.50
2022-11-22T17:06:22.317Z,98562.91
2022-11-22T17:08:51.266Z,98559.50
2022-11-22T17:11:20.845Z,98563.06
2022-11-22T17:13:48.340Z,98560.37
2022-11-22T17:16:19.303Z,98553.50
2022-11-22T17:18:47.665Z,98549.97
2022-11-22T17:21:16.845Z,98548.41
2022-11-22T17:23:45.209Z,98549.28
2022-11-22T17:26:12.559Z,98554.38
2022-11-22T17:28:39.925Z,98558.69
2022-11-22T17:31:14.941Z,98561.25
2022-11-22T17:33:42.327Z,98560.37
2022-11-22T17:36:20.982Z,98552.47
2022-11-22T17:38:48.278Z,98563.78
2022-11-22T17:41:16.171Z,98566.34
2022-11-22T17:43:43.474Z,98565.19
2022-11-22T17:46:10.822Z,98565.16
2022-11-22T17:48:38.447Z,98560.94
2022-11-22T17:51:12.529Z,98559.09
2022-11-22T17:53:40.088Z,98557.00
2022-11-22T17:56:11.510Z,98551.16
2022-11-22T17:58:40.239Z,98556.09
2022-11-22T18:01:10.084Z,98565.00
2022-11-22T18:03:38.414Z,98559.78
2022-11-22T18:06:06.739Z,98550.34
2022-11-22T18:08:34.091Z,98543.22
2022-11-22T18:11:02.413Z,98538.37
2022-11-22T18:13:31.550Z,98541.75
2022-11-22T18:16:03.433Z,98540.81
2022-11-22T18:21:19.465Z,98547.81
2022-11-22T18:23:47.063Z,98544.50
2022-11-22T18:26:38.216Z,98551.59
2022-11-22T18:29:35.574Z,98529.03
2022-11-22T18:31:52.927Z,98532.59
2022-11-22T18:34:24.382Z,98522.13
2022-11-22T18:37:00.312Z,98524.78
2022-11-22T18:39:33.936Z,98522.94
2022-11-22T18:42:02.089Z,98523.84
2022-11-22T18:44:29.709Z,98520.34
2022-11-22T18:46:57.059Z,98514.41
2022-11-22T18:49:24.423Z,98505.72
2022-11-22T18:51:52.218Z,98515.28
2022-11-22T18:54:21.609Z,98511.94
2022-11-22T18:56:50.043Z,98506.75
2022-11-22T18:59:17.736Z,98496.47
2022-11-22T19:01:45.047Z,98499.06
2022-11-22T19:04:16.227Z,98487.81
2022-11-22T19:06:44.427Z,98480.19
2022-11-22T19:09:12.052Z,98470.47
2022-11-22T19:11:39.382Z,98471.44
2022-11-22T19:14:07.035Z,98473.09
2022-11-22T19:16:34.755Z,98466.22
2022-11-22T19:19:02.150Z,98467.06
2022-11-22T19:21:30.318Z,98463.66
2022-11-22T19:23:57.914Z,98454.19
2022-11-22T19:26:27.015Z,98455.84
2022-11-22T19:28:56.150Z,98455.75
2022-11-22T19:31:26.095Z,98459.22
2022-11-22T19:33:53.488Z,98453.13
2022-11-22T19:36:26.427Z,98455.72
2022-11-22T19:38:58.049Z,98453.28
2022-11-22T19:41:25.984Z,98461.13
2022-11-22T19:43:53.383Z,98441.38
2022-11-22T19:46:21.086Z,98440.47
2022-11-22T19:48:52.859Z,98449.84
2022-11-22T19:51:20.523Z,98439.47
2022-11-22T19:53:48.218Z,98441.19
2022-11-22T19:56:17.482Z,98439.37
2022-11-22T19:58:53.078Z,98438.66
2022-11-22T20:01:22.575Z,98442.75
2022-11-22T20:03:58.807Z,98440.19
2022-11-22T20:06:27.077Z,98430.03
2022-11-22T20:09:00.759Z,98435.34
2022-11-22T20:11:28.104Z,98442.94
2022-11-22T20:13:55.698Z,98435.06
2022-11-22T20:16:25.945Z,98448.22
2022-11-22T20:18:54.724Z,98437.00
2022-11-22T20:21:23.328Z,98437.72
2022-11-22T20:23:51.922Z,98442.25
2022-11-22T20:26:20.341Z,98445.72
2022-11-22T20:28:48.364Z,98440.47
2022-11-22T20:31:17.955Z,98444.66
2022-11-22T20:33:49.740Z,98440.22
2022-11-22T20:36:28.890Z,98438.53
2022-11-22T20:38:56.579Z,98436.72
2022-11-22T20:41:26.874Z,98432.47
2022-11-22T20:43:54.493Z,98435.00
2022-11-22T20:46:23.687Z,98430.09
2022-11-22T20:48:53.100Z,98436.22
2022-11-22T20:51:25.597Z,98440.25
2022-11-22T20:53:53.926Z,98427.47
2022-11-22T20:56:21.538Z,98434.31
2022-11-22T20:58:49.246Z,98427.28
2022-11-22T21:01:19.462Z,98423.16
2022-11-22T21:03:47.039Z,98434.41
2022-11-22T21:06:15.888Z,98426.66
2022-11-22T21:08:45.732Z,98436.09
2022-11-22T21:11:18.286Z,98431.87
2022-11-22T21:13:47.113Z,98427.66
2022-11-22T21:16:26.090Z,98435.25
2022-11-22T21:19:01.828Z,98430.97
2022-11-22T21:21:29.657Z,98436.13
2022-11-22T21:23:59.977Z,98438.94
2022-11-22T21:26:27.462Z,98441.44
2022-11-22T21:28:55.099Z,98446.50
2022-11-22T21:31:23.380Z,98449.16
2022-11-22T21:33:51.420Z,98439.41
2022-11-22T21:36:19.305Z,98436.81
2022-11-22T21:38:47.232Z,98444.59
2022-11-22T21:44:07.970Z,98445.47
2022-11-22T21:46:35.298Z,98437.75
2022-11-22T21:49:02.658Z,98434.09
2022-11-22T21:51:30.284Z,98425.81
2022-11-22T21:53:58.586Z,98435.22
2022-11-22T21:56:26.795Z,98434.41
2022-11-22T21:58:54.810Z,98433.69
2022-11-22T22:01:22.517Z,98434.47
2022-11-22T22:03:50.538Z,98441.44
2022-11-22T22:06:18.400Z,98433.63
2022-11-22T22:08:45.740Z,98432.75
2022-11-22T22:11:13.445Z,98434.50
2022-11-22T22:13:40.731Z,98438.78
2022-11-22T22:16:12.761Z,98438.53
2022-11-22T22:18:40.358Z,98438.34
2022-11-22T22:21:09.657Z,98436.59
2022-11-22T22:23:38.323Z,98426.47
2022-11-22T22:26:14.203Z,98432.47
2022-11-22T22:28:41.918Z,98430.06
2022-11-22T22:31:17.149Z,98435.34
2022-11-22T22:33:45.688Z,98442.31
2022-11-22T22:36:13.864Z,98432.66
2022-11-22T22:38:41.614Z,98429.19
2022-11-22T22:41:10.921Z,98433.47
2022-11-22T22:43:40.096Z,98442.06
2022-11-22T22:46:19.494Z,98427.47
2022-11-22T22:48:47.957Z,98429.97
2022-11-22T22:51:16.583Z,98434.28
2022-11-22T22:53:44.570Z,98432.44
2022-11-22T22:56:13.989Z,98432.47
2022-11-22T22:58:41.775Z,98434.22
2022-11-22T23:01:17.373Z,98431.03
2022-11-22T23:03:57.175Z,98438.81
2022-11-22T23:06:33.937Z,98442.19
2022-11-22T23:09:03.019Z,98426.84
2022-11-22T23:11:50.108Z,98436.19
2022-11-22T23:14:22.780Z,98429.53
2022-11-22T23:16:54.560Z,98430.28
2022-11-22T23:19:25.071Z,98427.56
2022-11-22T23:21:52.353Z,98436.34
2022-11-22T23:24:19.761Z,98432.03
2022-11-22T23:26:47.618Z,98425.91
2022-11-22T23:29:14.916Z,98418.91
2022-11-22T23:31:42.321Z,98431.81
2022-11-22T23:34:11.200Z,98424.94
2022-11-22T23:36:40.985Z,98433.69
2022-11-22T23:39:08.978Z,98430.16
2022-11-22T23:41:36.597Z,98427.47
2022-11-22T23:44:04.208Z,98432.69
2022-11-22T23:46:31.499Z,98426.81
2022-11-22T23:49:00.809Z,98423.16
2022-11-22T23:51:29.054Z,98420.75
2022-11-22T23:53:57.488Z,98423.28
2022-11-22T23:56:25.533Z,98419.94
2022-11-22T23:58:53.098Z,98423.34
